createdAt,value
2018-11-27T00:00:39.467Z,3.70
2018-11-27T00:03:08.563Z,3.70
2018-11-27T00:05:38.363Z,3.80
2018-11-27T00:08:07.963Z,3.80
2018-11-27T00:10:38.498Z,3.80
2018-11-27T00:13:07.264Z,3.80
2018-11-27T00:15:36.072Z,3.80
2018-11-27T00:18:04.483Z,3.80
2018-11-27T00:20:33.139Z,3.80
2018-11-27T00:23:01.540Z,3.70
2018-11-27T00:25:30.131Z,3.70
2018-11-27T00:27:58.534Z,3.70
2018-11-27T00:30:26.878Z,3.60
2018-11-27T00:32:55.252Z,3.60
2018-11-27T00:35:23.971Z,3.50
2018-11-27T00:37:52.347Z,3.40
2018-11-27T00:40:23.589Z,3.40
2018-11-27T00:42:51.975Z,3.40
2018-11-27T00:45:21.415Z,3.30
2018-11-27T00:47:50.606Z,3.30
2018-11-27T00:50:23.310Z,3.20
2018-11-27T00:52:51.685Z,3.20
2018-11-27T00:55:20.769Z,3.10
2018-11-27T00:57:50.618Z,3.00
2018-11-27T01:00:20.154Z,3.00
2018-11-27T01:02:48.881Z,3.00
2018-11-27T01:05:18.374Z,2.90
2018-11-27T01:07:47.904Z,2.80
2018-11-27T01:10:20.502Z,2.80
2018-11-27T01:12:48.866Z,2.70
2018-11-27T01:15:17.336Z,2.80
2018-11-27T01:17:47.880Z,2.80
2018-11-27T01:20:20.556Z,2.90
2018-11-27T01:22:55.610Z,2.90
2018-11-27T01:25:23.998Z,2.80
2018-11-27T01:27:52.388Z,2.80
2018-11-27T01:30:22.166Z,2.90
2018-11-27T01:32:50.972Z,2.90
2018-11-27T01:35:21.775Z,2.90
2018-11-27T01:37:51.393Z,2.80
2018-11-27T01:40:21.093Z,2.80
2018-11-27T01:42:51.587Z,2.80
2018-11-27T01:45:21.253Z,2.80
2018-11-27T01:47:49.813Z,2.80
2018-11-27T01:50:19.233Z,2.80
2018-11-27T01:52:47.727Z,2.80
2018-11-27T01:55:17.449Z,2.70
2018-11-27T01:57:45.942Z,2.80
2018-11-27T02:00:20.740Z,2.80
2018-11-27T02:02:49.548Z,2.90
2018-11-27T02:05:18.276Z,2.90
2018-11-27T02:07:46.660Z,2.90
2018-11-27T02:10:15.052Z,2.90
2018-11-27T02:12:45.093Z,2.90
2018-11-27T02:15:16.745Z,3.00
2018-11-27T02:17:45.185Z,3.20
2018-11-27T02:20:13.898Z,3.30
2018-11-27T02:22:42.691Z,3.30
2018-11-27T02:25:16.412Z,3.40
2018-11-27T02:27:45.184Z,3.40
2018-11-27T02:30:14.977Z,3.40
2018-11-27T02:32:43.444Z,3.40
2018-11-27T02:35:12.999Z,3.50
2018-11-27T02:37:42.054Z,3.50
2018-11-27T02:40:13.480Z,3.40
2018-11-27T02:42:42.393Z,3.40
2018-11-27T02:45:15.052Z,3.40
2018-11-27T02:47:44.270Z,3.40
2018-11-27T02:50:14.755Z,3.40
2018-11-27T02:52:43.161Z,3.40
2018-11-27T02:55:12.596Z,3.40
2018-11-27T02:57:41.309Z,3.50
2018-11-27T03:00:14.953Z,3.50
2018-11-27T03:02:43.372Z,3.50
2018-11-27T03:05:23.970Z,3.50
2018-11-27T03:07:52.360Z,3.50
2018-11-27T03:10:21.124Z,3.50
2018-11-27T03:12:49.548Z,3.50
2018-11-27T03:15:18.363Z,3.50
2018-11-27T03:17:47.428Z,3.60
2018-11-27T03:20:16.842Z,3.60
2018-11-27T03:22:45.264Z,3.60
2018-11-27T03:25:15.774Z,3.60
2018-11-27T03:27:44.911Z,3.60
2018-11-27T03:30:16.324Z,3.60
2018-11-27T03:32:45.082Z,3.60
2018-11-27T03:35:18.608Z,3.60
2018-11-27T03:37:47.579Z,3.60
2018-11-27T03:40:18.544Z,3.60
2018-11-27T03:42:46.956Z,3.60
2018-11-27T03:45:16.059Z,3.70
2018-11-27T03:47:44.538Z,3.60
2018-11-27T03:50:16.490Z,3.70
2018-11-27T03:52:44.899Z,3.70
2018-11-27T03:55:13.697Z,3.70
2018-11-27T03:57:42.069Z,3.70
2018-11-27T04:00:14.118Z,3.70
2018-11-27T04:02:42.602Z,3.80
2018-11-27T04:05:12.149Z,3.80
2018-11-27T04:07:40.552Z,3.80
2018-11-27T04:10:12.593Z,3.70
2018-11-27T04:12:40.960Z,3.70
2018-11-27T04:15:09.816Z,3.70
2018-11-27T04:17:38.213Z,3.80
2018-11-27T04:20:08.897Z,3.80
2018-11-27T04:22:37.496Z,3.80
2018-11-27T04:25:07.994Z,3.80
2018-11-27T04:27:36.350Z,3.80
2018-11-27T04:30:05.350Z,3.80
2018-11-27T04:32:33.736Z,3.80
2018-11-27T04:35:02.086Z,3.80
2018-11-27T04:37:30.453Z,3.80
2018-11-27T04:39:59.002Z,3.80
2018-11-27T04:42:27.368Z,3.90
2018-11-27T04:44:55.815Z,3.80
2018-11-27T04:47:24.263Z,3.80
2018-11-27T04:49:52.621Z,3.80
2018-11-27T04:52:21.019Z,3.80
2018-11-27T04:54:49.414Z,3.80
2018-11-27T04:57:17.768Z,3.90
2018-11-27T04:59:46.142Z,3.90
2018-11-27T05:02:14.528Z,3.90
2018-11-27T05:04:42.893Z,3.90
2018-11-27T05:07:11.288Z,3.90
2018-11-27T05:09:39.711Z,3.90
2018-11-27T05:12:08.095Z,3.90
2018-11-27T05:14:36.472Z,3.90
2018-11-27T05:17:05.401Z,3.90
2018-11-27T05:19:33.793Z,3.90
2018-11-27T05:22:02.518Z,3.80
2018-11-27T05:24:30.935Z,3.90
2018-11-27T05:26:59.323Z,3.90
2018-11-27T05:29:27.679Z,3.90
2018-11-27T05:31:56.071Z,3.90
2018-11-27T05:34:24.757Z,3.90
2018-11-27T05:36:53.161Z,3.90
2018-11-27T05:39:21.531Z,3.90
2018-11-27T05:41:49.903Z,3.90
2018-11-27T05:44:18.251Z,4.00
2018-11-27T05:46:46.935Z,4.00
2018-11-27T05:49:15.312Z,4.00
2018-11-27T05:51:43.696Z,3.90
2018-11-27T05:54:12.110Z,4.00
2018-11-27T05:56:40.498Z,3.90
2018-11-27T05:59:08.876Z,4.00
2018-11-27T06:01:37.294Z,4.00
2018-11-27T06:04:05.974Z,4.00
2018-11-27T06:06:34.351Z,4.00
2018-11-27T06:09:02.739Z,4.00
2018-11-27T06:11:31.147Z,4.00
2018-11-27T06:13:59.497Z,4.00
2018-11-27T06:16:27.885Z,4.00
2018-11-27T06:18:56.238Z,4.00
2018-11-27T06:21:24.699Z,3.90
2018-11-27T06:23:53.087Z,4.00
2018-11-27T06:26:21.481Z,4.00
2018-11-27T06:28:49.887Z,4.00
2018-11-27T06:31:18.274Z,4.00
2018-11-27T06:33:46.629Z,4.00
2018-11-27T06:36:14.990Z,3.90
2018-11-27T06:38:43.380Z,4.00
2018-11-27T06:41:11.816Z,4.00
2018-11-27T06:43:40.220Z,4.00
2018-11-27T06:46:08.610Z,4.00
2018-11-27T06:48:36.968Z,3.90
2018-11-27T06:51:05.904Z,3.90
2018-11-27T06:53:34.298Z,3.90
2018-11-27T06:56:02.677Z,3.90
2018-11-27T06:58:31.417Z,3.90
2018-11-27T07:00:59.788Z,3.90
2018-11-27T07:03:28.142Z,3.90
2018-11-27T07:05:56.532Z,3.90
2018-11-27T07:08:24.938Z,3.90
2018-11-27T07:10:53.299Z,3.90
2018-11-27T07:13:23.549Z,3.90
2018-11-27T07:15:52.200Z,3.90
2018-11-27T07:18:20.583Z,3.90
2018-11-27T07:20:48.991Z,3.90
2018-11-27T07:23:17.384Z,3.80
2018-11-27T07:25:45.758Z,3.90
2018-11-27T07:28:14.134Z,3.80
2018-11-27T07:30:42.717Z,3.80
2018-11-27T07:33:11.083Z,3.80
2018-11-27T07:35:39.504Z,3.80
2018-11-27T07:38:07.918Z,3.70
2018-11-27T07:40:36.271Z,3.70
2018-11-27T07:43:13.615Z,3.80
2018-11-27T07:45:42.268Z,3.70
2018-11-27T07:48:10.846Z,3.70
2018-11-27T07:50:39.256Z,3.70
2018-11-27T07:53:07.810Z,3.70
2018-11-27T07:55:36.254Z,3.70
2018-11-27T07:58:05.573Z,3.80
2018-11-27T08:00:34.411Z,3.80
2018-11-27T08:03:02.798Z,3.80
2018-11-27T08:05:40.080Z,3.80
2018-11-27T08:08:11.813Z,3.90
2018-11-27T08:10:40.450Z,3.90
2018-11-27T08:13:09.416Z,4.00
2018-11-27T08:15:37.807Z,4.00
2018-11-27T08:18:06.606Z,4.00
2018-11-27T08:20:35.320Z,4.10
2018-11-27T08:23:04.234Z,4.00
2018-11-27T08:25:32.627Z,4.10
2018-11-27T08:28:01.594Z,4.10
2018-11-27T08:30:30.821Z,4.10
2018-11-27T08:32:59.207Z,4.20
2018-11-27T08:35:29.203Z,4.20
2018-11-27T08:37:58.595Z,4.20
2018-11-27T08:40:28.218Z,4.20
2018-11-27T08:42:56.647Z,4.20
2018-11-27T08:45:25.822Z,4.30
2018-11-27T08:47:55.088Z,4.30
2018-11-27T08:50:24.412Z,4.30
2018-11-27T08:52:54.908Z,4.30
2018-11-27T08:55:26.491Z,4.40
2018-11-27T08:57:55.159Z,4.40
2018-11-27T09:00:24.674Z,4.40
2018-11-27T09:02:53.063Z,4.40
2018-11-27T09:05:21.497Z,4.40
2018-11-27T09:07:49.948Z,4.50
2018-11-27T09:10:20.637Z,4.50
2018-11-27T09:12:49.012Z,4.50
2018-11-27T09:15:18.602Z,4.60
2018-11-27T09:18:19.266Z,4.60
2018-11-27T09:20:47.668Z,4.70
2018-11-27T09:23:16.228Z,4.70
2018-11-27T09:25:44.620Z,4.70
2018-11-27T09:28:13.062Z,4.70
2018-11-27T09:30:41.442Z,4.70
2018-11-27T09:33:10.227Z,4.70
2018-11-27T09:35:38.954Z,4.70
2018-11-27T09:38:08.174Z,4.70
2018-11-27T09:40:36.792Z,4.80
2018-11-27T09:43:06.294Z,4.80
2018-11-27T09:45:34.982Z,4.80
2018-11-27T09:48:03.378Z,4.80
2018-11-27T09:50:31.732Z,4.80
2018-11-27T09:53:00.178Z,4.80
2018-11-27T09:55:29.025Z,4.80
2018-11-27T09:57:59.313Z,4.80
2018-11-27T10:00:27.238Z,4.80
2018-11-27T10:02:59.040Z,4.80
2018-11-27T10:05:27.440Z,4.80
2018-11-27T10:07:56.147Z,4.90
2018-11-27T10:10:25.133Z,4.80
2018-11-27T10:12:56.616Z,4.90
2018-11-27T10:15:30.549Z,4.90
2018-11-27T10:18:02.967Z,4.90
2018-11-27T10:20:36.271Z,5.00
2018-11-27T10:23:06.963Z,5.00
2018-11-27T10:25:35.996Z,5.10
2018-11-27T10:28:04.472Z,5.30
2018-11-27T10:30:32.843Z,5.30
2018-11-27T10:33:01.259Z,5.30
2018-11-27T10:36:00.659Z,5.30
2018-11-27T10:38:29.131Z,5.40
2018-11-27T10:40:57.486Z,5.30
2018-11-27T10:43:25.859Z,5.30
2018-11-27T10:45:54.231Z,5.30
2018-11-27T10:48:22.605Z,5.20
2018-11-27T10:50:51.035Z,5.30
2018-11-27T10:53:19.393Z,5.30
2018-11-27T10:55:47.755Z,5.20
2018-11-27T10:58:16.195Z,5.20
2018-11-27T11:00:50.069Z,5.20
2018-11-27T11:03:24.984Z,5.20
2018-11-27T11:05:55.755Z,5.20
2018-11-27T11:08:24.494Z,5.20
2018-11-27T11:10:53.030Z,5.10
2018-11-27T11:13:21.430Z,5.20
2018-11-27T11:15:50.269Z,5.20
2018-11-27T11:18:18.664Z,5.20
2018-11-27T11:20:47.036Z,5.20
2018-11-27T11:23:15.460Z,5.30
2018-11-27T11:25:44.613Z,5.20
2018-11-27T11:28:12.425Z,5.30
2018-11-27T11:30:40.800Z,5.30
2018-11-27T11:33:09.366Z,5.30
2018-11-27T11:35:37.797Z,5.20
2018-11-27T11:38:06.640Z,5.20
2018-11-27T11:40:35.011Z,5.20
2018-11-27T11:43:03.387Z,5.20
2018-11-27T11:45:31.746Z,5.30
2018-11-27T11:48:00.125Z,5.30
2018-11-27T11:50:30.111Z,5.30
2018-11-27T11:53:00.964Z,5.30
2018-11-27T11:55:29.343Z,5.30
2018-11-27T11:57:57.701Z,5.40
2018-11-27T12:00:43.307Z,5.40
2018-11-27T12:03:11.695Z,5.40
2018-11-27T12:05:40.335Z,5.40
2018-11-27T12:08:09.292Z,5.50
2018-11-27T12:10:38.463Z,5.50
2018-11-27T12:13:08.392Z,5.50
2018-11-27T12:15:37.111Z,5.50
2018-11-27T12:18:06.058Z,5.60
2018-11-27T12:23:33.530Z,5.60
2018-11-27T12:26:02.392Z,5.60
2018-11-27T12:28:30.762Z,5.60
2018-11-27T12:30:59.140Z,5.60
2018-11-27T12:33:27.872Z,5.70
2018-11-27T12:35:56.370Z,5.70
2018-11-27T12:38:24.768Z,5.70
2018-11-27T12:40:53.440Z,5.70
2018-11-27T12:43:21.828Z,5.70
2018-11-27T12:45:50.237Z,5.70
2018-11-27T12:48:18.590Z,5.70
2018-11-27T12:50:48.854Z,5.70
2018-11-27T12:53:18.383Z,5.80
2018-11-27T12:55:48.070Z,5.80
2018-11-27T12:58:16.485Z,5.80
2018-11-27T13:00:44.899Z,5.90
2018-11-27T13:03:13.286Z,5.90
2018-11-27T13:05:43.754Z,5.90
2018-11-27T13:08:15.932Z,5.90
2018-11-27T13:10:44.637Z,5.90
2018-11-27T13:13:13.000Z,5.90
2018-11-27T13:15:41.904Z,5.90
2018-11-27T13:18:10.875Z,5.90
2018-11-27T13:20:40.278Z,5.90
2018-11-27T13:23:08.881Z,6.00
2018-11-27T13:25:38.323Z,5.90
2018-11-27T13:28:08.567Z,5.90
2018-11-27T13:30:48.643Z,5.90
2018-11-27T13:33:51.249Z,5.90
2018-11-27T13:36:19.588Z,5.90
2018-11-27T13:38:48.282Z,5.90
2018-11-27T13:41:16.672Z,6.00
2018-11-27T13:43:45.066Z,5.90
2018-11-27T13:46:13.449Z,5.90
2018-11-27T13:48:41.846Z,6.00
2018-11-27T13:51:10.230Z,6.00
2018-11-27T13:53:38.623Z,6.00
2018-11-27T13:56:07.022Z,6.00
2018-11-27T13:58:35.480Z,6.00
2018-11-27T14:01:03.911Z,6.00
2018-11-27T14:03:32.274Z,6.00
2018-11-27T14:06:00.698Z,6.00
2018-11-27T14:08:29.485Z,5.90
2018-11-27T14:10:58.029Z,5.90
2018-11-27T14:13:26.477Z,5.90
2018-11-27T14:15:55.017Z,5.90
2018-11-27T14:18:23.419Z,5.90
2018-11-27T14:20:51.765Z,5.90
2018-11-27T14:23:20.142Z,5.90
2018-11-27T14:25:48.541Z,5.90
2018-11-27T14:28:17.013Z,5.90
2018-11-27T14:30:45.405Z,5.90
2018-11-27T14:33:13.746Z,5.80
2018-11-27T14:35:42.198Z,5.70
2018-11-27T14:38:10.646Z,5.60
2018-11-27T14:40:39.134Z,5.60
2018-11-27T14:43:07.841Z,5.60
2018-11-27T14:45:36.216Z,5.60
2018-11-27T14:48:04.860Z,5.60
2018-11-27T14:50:33.250Z,5.60
2018-11-27T14:53:01.624Z,5.60
2018-11-27T14:55:31.609Z,5.60
2018-11-27T14:58:00.025Z,5.60
2018-11-27T15:00:28.580Z,5.60
2018-11-27T15:04:26.426Z,5.60
2018-11-27T15:06:54.848Z,5.50
2018-11-27T15:09:23.248Z,5.40
2018-11-27T15:11:51.655Z,5.40
2018-11-27T15:14:25.086Z,5.20
2018-11-27T15:16:48.496Z,5.10
2018-11-27T15:19:16.888Z,5.00
2018-11-27T15:21:45.308Z,4.80
2018-11-27T15:24:13.709Z,4.70
2018-11-27T15:26:42.275Z,4.60
2018-11-27T15:29:10.774Z,4.60
2018-11-27T15:31:39.180Z,4.60
2018-11-27T15:34:07.970Z,4.60
2018-11-27T15:36:37.117Z,4.40
2018-11-27T15:39:08.788Z,4.10
2018-11-27T15:41:37.499Z,3.70
2018-11-27T15:44:06.292Z,3.70
2018-11-27T15:46:34.761Z,3.70
2018-11-27T15:49:03.173Z,3.80
2018-11-27T15:51:31.563Z,3.80
2018-11-27T15:53:59.925Z,3.80
2018-11-27T15:56:28.661Z,3.80
2018-11-27T15:58:57.055Z,3.80
2018-11-27T16:01:25.471Z,3.90
2018-11-27T16:03:53.842Z,3.90
2018-11-27T16:06:22.253Z,4.00
2018-11-27T16:08:51.948Z,4.00
2018-11-27T16:11:19.061Z,4.00
2018-11-27T16:13:49.189Z,4.00
2018-11-27T16:16:15.843Z,4.00
2018-11-27T16:18:44.259Z,4.00
2018-11-27T16:21:12.653Z,4.00
2018-11-27T16:23:41.084Z,4.00
2018-11-27T16:26:09.484Z,3.90
2018-11-27T16:28:37.858Z,4.00
2018-11-27T16:31:06.713Z,4.00
2018-11-27T16:33:35.075Z,4.10
2018-11-27T16:36:03.790Z,4.10
2018-11-27T16:40:01.384Z,4.10
2018-11-27T16:42:30.661Z,4.00
2018-11-27T16:44:58.157Z,4.10
2018-11-27T16:47:26.538Z,4.10
2018-11-27T16:49:54.910Z,4.10
2018-11-27T16:52:23.308Z,4.10
2018-11-27T16:54:51.684Z,4.10
2018-11-27T16:57:20.033Z,4.20
2018-11-27T16:59:48.394Z,4.20
2018-11-27T17:02:16.840Z,4.10
2018-11-27T17:04:45.201Z,4.20
2018-11-27T17:07:13.576Z,4.20
2018-11-27T17:09:41.960Z,4.30
2018-11-27T17:12:10.350Z,4.30
2018-11-27T17:14:38.737Z,4.30
2018-11-27T17:17:07.124Z,4.30
2018-11-27T17:19:35.698Z,4.30
2018-11-27T17:22:04.096Z,4.20
2018-11-27T17:24:32.488Z,4.20
2018-11-27T17:27:00.883Z,4.20
2018-11-27T17:29:29.465Z,4.20
2018-11-27T17:31:57.959Z,4.20
2018-11-27T17:34:26.321Z,4.20
2018-11-27T17:36:54.711Z,4.20
2018-11-27T17:39:23.120Z,4.20
2018-11-27T17:41:51.492Z,4.30
2018-11-27T17:44:19.883Z,4.40
2018-11-27T17:46:48.282Z,4.30
2018-11-27T17:49:16.673Z,4.20
2018-11-27T17:51:45.063Z,4.20
2018-11-27T17:54:13.439Z,4.20
2018-11-27T17:56:41.803Z,4.20
2018-11-27T17:59:10.184Z,4.20
2018-11-27T18:01:38.982Z,4.20
2018-11-27T18:04:07.311Z,4.20
2018-11-27T18:06:35.691Z,4.10
2018-11-27T18:09:05.918Z,4.10
2018-11-27T18:11:34.302Z,4.00
2018-11-27T18:14:02.652Z,4.00
2018-11-27T18:16:31.055Z,4.00
2018-11-27T18:18:59.474Z,4.00
2018-11-27T18:21:27.842Z,4.00
2018-11-27T18:23:56.207Z,4.00
2018-11-27T18:26:24.640Z,4.00
2018-11-27T18:28:53.011Z,4.00
2018-11-27T18:31:21.422Z,4.00
2018-11-27T18:33:50.213Z,4.00
2018-11-27T18:36:18.565Z,4.00
2018-11-27T18:38:46.945Z,3.90
2018-11-27T18:41:15.553Z,4.00
2018-11-27T18:43:44.055Z,4.00
2018-11-27T18:46:13.451Z,3.90
2018-11-27T18:48:42.083Z,3.90
2018-11-27T18:51:10.465Z,3.90
2018-11-27T18:53:38.840Z,3.90
2018-11-27T18:56:07.547Z,4.00
2018-11-27T18:58:35.984Z,4.00
2018-11-27T19:01:04.388Z,3.90
2018-11-27T19:03:32.742Z,3.90
2018-11-27T19:06:01.444Z,3.80
2018-11-27T19:08:29.832Z,3.80
2018-11-27T19:10:58.218Z,3.80
2018-11-27T19:13:26.604Z,3.70
2018-11-27T19:15:54.980Z,3.70
2018-11-27T19:18:25.835Z,3.70
2018-11-27T19:20:54.194Z,3.70
2018-11-27T19:23:23.870Z,3.80
2018-11-27T19:25:52.229Z,3.80
2018-11-27T19:28:20.656Z,3.80
2018-11-27T19:30:51.621Z,3.90
2018-11-27T19:33:20.030Z,3.90
2018-11-27T19:35:48.515Z,3.90
2018-11-27T19:38:18.231Z,3.90
2018-11-27T19:40:46.979Z,4.00
2018-11-27T19:43:15.450Z,4.00
2018-11-27T19:45:43.911Z,4.00
2018-11-27T19:48:13.172Z,4.00
2018-11-27T19:50:42.047Z,4.00
2018-11-27T19:53:12.819Z,4.00
2018-11-27T19:55:41.202Z,4.00
2018-11-27T19:58:10.058Z,4.00
2018-11-27T20:00:38.552Z,3.90
2018-11-27T20:03:08.443Z,4.00
2018-11-27T20:05:36.832Z,4.00
2018-11-27T20:08:06.393Z,4.00
2018-11-27T20:10:34.738Z,4.00
2018-11-27T20:13:03.120Z,3.90
2018-11-27T20:15:31.527Z,3.90
2018-11-27T20:17:59.956Z,3.90
2018-11-27T20:20:28.756Z,3.90
2018-11-27T20:22:57.884Z,3.90
2018-11-27T20:25:26.266Z,3.90
2018-11-27T20:27:54.706Z,3.90
2018-11-27T20:30:25.052Z,3.90
2018-11-27T20:33:57.020Z,3.80
2018-11-27T20:36:25.502Z,3.80
2018-11-27T20:38:53.900Z,3.80
2018-11-27T20:41:22.312Z,3.70
2018-11-27T20:43:50.716Z,3.70
2018-11-27T20:46:19.098Z,3.70
2018-11-27T20:48:47.454Z,3.70
2018-11-27T20:51:15.826Z,3.70
2018-11-27T20:53:44.208Z,3.70
2018-11-27T20:56:13.329Z,3.60
2018-11-27T20:58:42.097Z,3.60
2018-11-27T21:01:10.509Z,3.60
2018-11-27T21:03:38.873Z,3.60
2018-11-27T21:06:07.615Z,3.60
2018-11-27T21:08:36.025Z,3.60
2018-11-27T21:11:08.286Z,3.60
2018-11-27T21:13:33.305Z,3.70
2018-11-27T21:16:01.680Z,3.70
2018-11-27T21:18:30.043Z,3.60
2018-11-27T21:20:58.407Z,3.60
2018-11-27T21:23:26.772Z,3.60
2018-11-27T21:25:59.831Z,3.60
2018-11-27T21:28:28.206Z,3.60
2018-11-27T21:30:56.554Z,3.50
2018-11-27T21:33:24.963Z,3.60
2018-11-27T21:35:53.314Z,3.60
2018-11-27T21:38:21.768Z,3.50
2018-11-27T21:40:50.518Z,3.60
2018-11-27T21:43:18.918Z,3.60
2018-11-27T21:45:47.616Z,3.60
2018-11-27T21:48:16.015Z,3.60
2018-11-27T21:50:44.685Z,3.60
2018-11-27T21:53:13.377Z,3.60
2018-11-27T21:55:42.279Z,3.60
2018-11-27T21:58:10.701Z,3.70
2018-11-27T22:00:40.609Z,3.70
2018-11-27T22:03:09.500Z,3.70
2018-11-27T22:05:37.895Z,3.80
2018-11-27T22:08:07.257Z,3.80
2018-11-27T22:10:35.717Z,3.90
2018-11-27T22:13:04.447Z,3.90
2018-11-27T22:15:35.192Z,4.00
2018-11-27T22:18:03.901Z,4.10
2018-11-27T22:20:32.254Z,4.10
2018-11-27T22:23:00.640Z,4.20
2018-11-27T22:25:29.322Z,4.30
2018-11-27T22:27:57.742Z,4.40
2018-11-27T22:30:26.244Z,4.40
2018-11-27T22:32:55.285Z,4.50
2018-11-27T22:35:23.698Z,4.60
2018-11-27T22:37:52.152Z,4.60
2018-11-27T22:40:22.347Z,4.70
2018-11-27T22:42:51.478Z,4.70
2018-11-27T22:45:23.009Z,4.70
2018-11-27T22:47:51.360Z,4.60
2018-11-27T22:50:20.098Z,4.60
2018-11-27T22:52:48.513Z,4.60
2018-11-27T22:55:17.021Z,4.60
2018-11-27T22:57:45.452Z,4.60
2018-11-27T23:00:20.708Z,4.60
2018-11-27T23:02:49.585Z,4.60
2018-11-27T23:05:18.931Z,4.60
2018-11-27T23:07:47.432Z,4.70
2018-11-27T23:10:15.963Z,4.70
2018-11-27T23:12:44.596Z,4.70
2018-11-27T23:15:15.331Z,4.70
2018-11-27T23:17:44.069Z,4.70
2018-11-27T23:20:14.642Z,4.70
2018-11-27T23:22:43.784Z,4.70
2018-11-27T23:25:13.123Z,4.70
2018-11-27T23:27:41.537Z,4.70
2018-11-27T23:30:12.523Z,4.70
2018-11-27T23:32:40.937Z,4.70
2018-11-27T23:35:09.696Z,4.70
2018-11-27T23:37:38.057Z,4.70
2018-11-27T23:40:10.170Z,4.80
2018-11-27T23:42:38.830Z,4.80
2018-11-27T23:45:12.254Z,4.80
2018-11-27T23:47:40.642Z,4.80
2018-11-27T23:50:10.883Z,4.80
2018-11-27T23:52:39.622Z,4.80
2018-11-27T23:55:09.528Z,4.80
2018-11-27T23:57:37.962Z,4.90
